Terminal Aerodrome Forecast
Issued by NWS Wilmington, OH

Current Version | Previous Version | Graphics & Text | Print | Product List | Glossary On
Versions: 1 2 3 4 5 6 7 8 9 10 11 12 13 14 15 16 17 18 19 20 21 22 23 24 25
544
FTUS41 KILN 012338
TAFILN
TAF
KILN 012338Z 0200/0224 19006KT P6SM VCTS BKN040CB
      TEMPO 0200/0202 4SM -TSRA BR OVC025CB
     FM020200 23006KT P6SM SCT050 BKN100
     FM020600 24008KT P6SM VCSH BKN050
     FM021000 29008KT P6SM BKN025
     FM021500 29008KT P6SM BKN025=

USA.gov is the U.S. government's official web portal to all federal, state and local government web resources and services.